createdAt,value
2019-05-13T00:00:34.265Z,6.49
2019-05-13T00:03:03.688Z,6.46
2019-05-13T00:05:33.920Z,6.44
2019-05-13T00:08:03.508Z,6.41
2019-05-13T00:10:34.750Z,6.40
2019-05-13T00:13:04.342Z,6.38
2019-05-13T00:15:34.237Z,6.35
2019-05-13T00:18:03.956Z,6.33
2019-05-13T00:20:33.851Z,6.30
2019-05-13T00:23:03.918Z,6.28
2019-05-13T00:25:33.827Z,6.26
2019-05-13T00:28:04.157Z,6.23
2019-05-13T00:30:34.325Z,6.20
2019-05-13T00:33:03.754Z,6.19
2019-05-13T00:35:33.801Z,6.18
2019-05-13T00:38:03.923Z,6.16
2019-05-13T00:40:33.735Z,6.15
2019-05-13T00:43:03.738Z,6.13
2019-05-13T00:45:33.934Z,6.11
2019-05-13T00:48:04.629Z,6.10
2019-05-13T00:50:33.662Z,6.09
2019-05-13T00:53:04.419Z,6.08
2019-05-13T00:55:34.339Z,6.08
2019-05-13T00:58:04.553Z,6.08
2019-05-13T01:00:34.215Z,6.07
2019-05-13T01:03:04.140Z,6.07
2019-05-13T01:05:34.073Z,6.06
2019-05-13T01:08:04.186Z,6.05
2019-05-13T01:10:34.462Z,6.04
2019-05-13T01:13:04.644Z,6.01
2019-05-13T01:15:34.535Z,6.00
2019-05-13T01:18:03.981Z,6.00
2019-05-13T01:20:34.605Z,5.98
2019-05-13T01:23:03.937Z,5.96
2019-05-13T01:25:33.965Z,5.95
2019-05-13T01:28:04.636Z,5.93
2019-05-13T01:30:34.697Z,5.93
2019-05-13T01:33:04.425Z,5.90
2019-05-13T01:35:34.180Z,5.87
2019-05-13T01:38:04.563Z,5.86
2019-05-13T01:40:34.687Z,5.85
2019-05-13T01:43:03.855Z,5.83
2019-05-13T01:45:33.816Z,5.82
2019-05-13T01:48:06.683Z,5.81
2019-05-13T01:50:33.702Z,5.79
2019-05-13T01:53:04.181Z,5.77
2019-05-13T01:55:33.886Z,5.76
2019-05-13T01:58:04.336Z,5.75
2019-05-13T02:00:35.435Z,5.73
2019-05-13T02:03:04.223Z,5.72
2019-05-13T02:05:33.926Z,5.72
2019-05-13T02:08:04.505Z,5.73
2019-05-13T02:10:54.486Z,5.73
2019-05-13T02:13:24.448Z,5.72
2019-05-13T02:15:54.978Z,5.72
2019-05-13T02:18:24.580Z,5.73
2019-05-13T02:20:55.460Z,5.73
2019-05-13T02:23:24.275Z,5.73
2019-05-13T02:25:54.259Z,5.73
2019-05-13T02:28:24.880Z,5.72
2019-05-13T02:30:56.131Z,5.70
2019-05-13T02:33:23.954Z,5.66
2019-05-13T02:35:53.320Z,5.64
2019-05-13T02:38:26.418Z,5.63
2019-05-13T02:40:52.975Z,5.62
2019-05-13T02:43:23.032Z,5.59
2019-05-13T02:45:53.198Z,5.57
2019-05-13T02:48:23.634Z,5.55
2019-05-13T02:50:53.990Z,5.54
2019-05-13T02:53:24.020Z,5.54
2019-05-13T02:55:53.141Z,5.52
2019-05-13T02:58:24.147Z,5.52
2019-05-13T03:00:53.366Z,5.51
2019-05-13T03:03:23.173Z,5.49
2019-05-13T03:05:53.216Z,5.48
2019-05-13T03:08:38.705Z,5.48
2019-05-13T03:10:53.452Z,5.46
2019-05-13T03:13:23.619Z,5.45
2019-05-13T03:16:13.261Z,5.44
2019-05-13T03:18:43.530Z,5.42
2019-05-13T03:21:13.332Z,5.40
2019-05-13T03:23:43.967Z,5.40
2019-05-13T03:26:13.000Z,5.39
2019-05-13T03:28:43.528Z,5.40
2019-05-13T03:31:16.733Z,5.39
2019-05-13T03:33:46.661Z,5.40
2019-05-13T03:36:16.638Z,5.40
2019-05-13T03:38:59.288Z,5.39
2019-05-13T03:41:17.114Z,5.40
2019-05-13T03:43:44.836Z,5.41
2019-05-13T03:46:13.726Z,5.42
2019-05-13T03:48:43.223Z,5.44
2019-05-13T03:51:13.357Z,5.46
2019-05-13T03:53:43.387Z,5.47
2019-05-13T03:56:13.243Z,5.49
2019-05-13T03:58:43.239Z,5.50
2019-05-13T04:01:13.038Z,5.53
2019-05-13T04:03:44.034Z,5.54
2019-05-13T04:06:14.011Z,5.56
2019-05-13T04:08:43.827Z,5.60
2019-05-13T04:11:13.454Z,5.62
2019-05-13T04:13:42.911Z,5.64
2019-05-13T04:16:13.003Z,5.69
2019-05-13T04:18:42.970Z,5.73
2019-05-13T04:21:13.050Z,5.75
2019-05-13T04:23:42.830Z,5.79
2019-05-13T04:26:14.928Z,5.83
2019-05-13T04:28:43.602Z,5.88
2019-05-13T04:31:14.086Z,5.92
2019-05-13T04:33:43.175Z,5.98
2019-05-13T04:36:13.389Z,6.03
2019-05-13T04:38:44.321Z,6.05
2019-05-13T04:41:12.321Z,6.09
2019-05-13T04:43:43.686Z,6.14
2019-05-13T04:46:13.961Z,6.20
2019-05-13T04:48:44.134Z,6.25
2019-05-13T04:51:13.775Z,6.33
2019-05-13T04:53:42.896Z,6.41
2019-05-13T04:56:13.723Z,6.48
2019-05-13T04:58:43.011Z,6.55
2019-05-13T05:01:24.085Z,6.62
2019-05-13T05:04:13.982Z,6.67
2019-05-13T05:06:58.935Z,6.73
2019-05-13T05:10:13.089Z,6.82
2019-05-13T05:12:22.910Z,6.89
2019-05-13T05:15:23.442Z,6.97
2019-05-13T05:18:02.838Z,7.06
2019-05-13T05:20:41.483Z,7.16
2019-05-13T05:23:31.923Z,7.24
2019-05-13T05:26:31.291Z,7.33
2019-05-13T05:29:11.260Z,7.42
2019-05-13T05:32:02.135Z,7.52
2019-05-13T05:34:41.836Z,7.58
2019-05-13T05:37:31.290Z,7.63
2019-05-13T05:40:01.935Z,7.69
2019-05-13T05:42:32.495Z,7.76
2019-05-13T05:45:02.744Z,7.83
2019-05-13T05:47:34.177Z,7.93
2019-05-13T05:50:03.766Z,8.01
2019-05-13T05:52:34.813Z,8.09
2019-05-13T05:55:03.745Z,8.16
2019-05-13T05:57:33.727Z,8.25
2019-05-13T06:00:03.713Z,8.31
2019-05-13T06:02:33.732Z,8.37
2019-05-13T06:05:04.652Z,8.44
2019-05-13T06:07:34.822Z,8.53
2019-05-13T06:10:05.486Z,8.57
2019-05-13T06:12:35.259Z,8.64
2019-05-13T06:15:05.041Z,8.76
2019-05-13T06:17:33.672Z,8.88
2019-05-13T06:20:04.003Z,8.98
2019-05-13T06:22:32.828Z,9.05
2019-05-13T06:25:01.722Z,9.11
2019-05-13T06:27:31.754Z,9.18
2019-05-13T06:30:02.233Z,9.24
2019-05-13T06:32:31.605Z,9.29
2019-05-13T06:35:01.978Z,9.35
2019-05-13T06:37:32.185Z,9.37
2019-05-13T06:40:02.040Z,9.43
2019-05-13T06:42:32.473Z,9.49
2019-05-13T06:45:01.923Z,9.58
2019-05-13T06:47:32.193Z,9.65
2019-05-13T06:50:03.086Z,9.72
2019-05-13T06:52:31.920Z,9.78
2019-05-13T06:55:02.754Z,9.84
2019-05-13T06:57:32.239Z,9.93
2019-05-13T07:00:01.723Z,10.06
2019-05-13T07:02:32.039Z,10.17
2019-05-13T07:05:02.394Z,10.26
2019-05-13T07:07:31.865Z,10.34
2019-05-13T07:10:02.461Z,10.44
2019-05-13T07:12:31.321Z,10.54
2019-05-13T07:15:02.266Z,10.64
2019-05-13T07:17:32.360Z,10.70
2019-05-13T07:20:02.325Z,10.74
2019-05-13T07:22:32.169Z,10.84
2019-05-13T07:25:02.608Z,10.93
2019-05-13T07:27:31.898Z,11.02
2019-05-13T07:30:02.262Z,11.09
2019-05-13T07:32:31.617Z,11.16
2019-05-13T07:35:03.449Z,11.22
2019-05-13T07:37:31.962Z,11.28
2019-05-13T07:40:02.520Z,11.35
2019-05-13T07:42:31.333Z,11.42
2019-05-13T07:45:01.499Z,11.50
2019-05-13T07:47:31.445Z,11.57
2019-05-13T07:50:02.559Z,11.64
2019-05-13T07:52:31.999Z,11.75
2019-05-13T07:55:01.671Z,11.80
2019-05-13T07:57:31.906Z,11.89
2019-05-13T08:00:01.989Z,11.98
2019-05-13T08:02:31.940Z,12.10
2019-05-13T08:05:02.369Z,12.25
2019-05-13T08:07:31.583Z,12.36
2019-05-13T08:10:03.242Z,12.48
2019-05-13T08:12:31.984Z,12.57
2019-05-13T08:15:03.153Z,12.67
2019-05-13T08:17:32.687Z,12.76
2019-05-13T08:20:02.837Z,12.85
2019-05-13T08:22:32.053Z,12.96
2019-05-13T08:25:03.031Z,13.05
2019-05-13T08:27:34.983Z,13.12
2019-05-13T08:30:01.809Z,13.19
2019-05-13T08:32:31.559Z,13.27
2019-05-13T08:35:07.027Z,13.37
2019-05-13T08:37:32.129Z,13.47
2019-05-13T08:40:01.616Z,13.56
2019-05-13T08:42:32.256Z,13.65
2019-05-13T08:45:01.862Z,13.69
2019-05-13T08:47:31.479Z,13.72
2019-05-13T08:50:03.967Z,13.77
2019-05-13T08:52:31.333Z,13.84
2019-05-13T08:55:01.565Z,13.88
2019-05-13T08:57:31.543Z,13.96
2019-05-13T09:00:04.666Z,14.02
2019-05-13T09:02:31.370Z,14.03
2019-05-13T09:05:02.344Z,14.08
2019-05-13T09:07:32.062Z,14.15
2019-05-13T09:10:01.884Z,14.20
2019-05-13T09:12:35.710Z,14.24
2019-05-13T09:15:03.289Z,14.29
2019-05-13T09:17:31.908Z,14.40
2019-05-13T09:20:02.843Z,14.51
2019-05-13T09:22:31.897Z,14.58
2019-05-13T09:25:02.111Z,14.63
2019-05-13T09:27:31.882Z,14.63
2019-05-13T09:30:02.769Z,14.64
2019-05-13T09:32:31.875Z,14.69
2019-05-13T09:35:02.935Z,14.66
2019-05-13T09:37:31.689Z,14.67
2019-05-13T09:40:02.378Z,14.72
2019-05-13T09:42:47.561Z,14.78
2019-05-13T09:45:02.300Z,14.87
2019-05-13T09:47:32.167Z,14.92
2019-05-13T09:50:00.746Z,14.95
2019-05-13T09:52:31.726Z,14.99
2019-05-13T09:55:02.849Z,15.01
2019-05-13T09:57:32.137Z,15.09
2019-05-13T10:00:01.713Z,15.17
2019-05-13T10:02:32.104Z,15.21
2019-05-13T10:05:02.232Z,15.19
2019-05-13T10:07:31.856Z,15.16
2019-05-13T10:10:01.629Z,15.20
2019-05-13T10:12:31.942Z,15.32
2019-05-13T10:15:02.167Z,15.41
2019-05-13T10:17:31.914Z,15.55
2019-05-13T10:20:00.826Z,15.64
2019-05-13T10:22:31.753Z,15.68
2019-05-13T10:25:02.182Z,15.66
2019-05-13T10:27:32.517Z,15.64
2019-05-13T10:30:00.876Z,15.69
2019-05-13T10:32:32.224Z,15.75
2019-05-13T10:35:03.200Z,15.78
2019-05-13T10:37:32.312Z,15.80
2019-05-13T10:40:02.382Z,15.89
2019-05-13T10:42:31.049Z,15.98
2019-05-13T10:45:02.271Z,16.08
2019-05-13T10:47:29.746Z,16.11
2019-05-13T10:49:58.167Z,16.16
2019-05-13T10:52:26.873Z,16.26
2019-05-13T10:54:55.604Z,16.31
2019-05-13T10:57:24.023Z,16.36
2019-05-13T10:59:53.006Z,16.41
2019-05-13T11:02:22.139Z,16.41
2019-05-13T11:04:52.559Z,16.32
2019-05-13T11:07:22.543Z,16.27
2019-05-13T11:09:52.690Z,16.31
2019-05-13T11:12:25.580Z,16.33
2019-05-13T11:14:55.185Z,16.41
2019-05-13T11:17:30.332Z,16.51
2019-05-13T11:19:52.561Z,16.58
2019-05-13T11:22:22.577Z,16.65
2019-05-13T11:24:51.950Z,16.67
2019-05-13T11:27:23.268Z,16.69
2019-05-13T11:29:52.337Z,16.68
2019-05-13T11:32:22.378Z,16.70
2019-05-13T11:34:53.078Z,16.79
2019-05-13T11:37:23.138Z,16.94
2019-05-13T11:39:51.822Z,17.02
2019-05-13T11:42:22.635Z,16.92
2019-05-13T11:44:52.715Z,16.76
2019-05-13T11:47:24.318Z,16.67
2019-05-13T11:49:53.303Z,16.69
2019-05-13T11:52:22.748Z,16.80
2019-05-13T11:54:53.782Z,16.88
2019-05-13T11:57:21.864Z,16.91
2019-05-13T11:59:52.960Z,16.97
2019-05-13T12:02:23.212Z,16.68
2019-05-13T12:04:53.554Z,16.68
2019-05-13T12:07:23.169Z,16.62
2019-05-13T12:09:52.869Z,16.63
2019-05-13T12:12:23.471Z,16.77
2019-05-13T12:15:20.276Z,16.95
2019-05-13T12:17:22.748Z,16.97
2019-05-13T12:19:54.342Z,16.97
2019-05-13T12:22:22.926Z,17.00
2019-05-13T12:24:52.211Z,17.03
2019-05-13T12:27:21.303Z,17.02
2019-05-13T12:29:53.416Z,17.07
2019-05-13T12:32:22.661Z,17.14
2019-05-13T12:34:52.598Z,17.28
2019-05-13T12:37:22.209Z,17.39
2019-05-13T12:39:53.194Z,17.44
2019-05-13T12:42:22.673Z,17.40
2019-05-13T12:45:08.384Z,17.39
2019-05-13T12:47:22.843Z,17.44
2019-05-13T12:49:51.408Z,17.52
2019-05-13T12:52:22.177Z,17.67
2019-05-13T12:54:52.752Z,17.79
2019-05-13T12:57:23.084Z,17.85
2019-05-13T12:59:50.969Z,17.87
2019-05-13T13:02:21.849Z,17.93
2019-05-13T13:05:08.653Z,17.98
2019-05-13T13:07:21.571Z,18.05
2019-05-13T13:09:53.505Z,18.28
2019-05-13T13:12:33.450Z,18.62
2019-05-13T13:14:54.400Z,18.94
2019-05-13T13:17:24.181Z,19.20
2019-05-13T13:19:54.768Z,19.45
2019-05-13T13:22:25.339Z,19.66
2019-05-13T13:24:57.137Z,19.86
2019-05-13T13:27:37.825Z,19.97
2019-05-13T13:30:02.734Z,20.12
2019-05-13T13:32:24.705Z,20.15
2019-05-13T13:34:54.707Z,20.20
2019-05-13T13:37:23.576Z,20.41
2019-05-13T13:39:54.981Z,20.59
2019-05-13T13:42:22.382Z,20.74
2019-05-13T13:44:53.840Z,20.95
2019-05-13T13:47:24.231Z,21.15
2019-05-13T13:49:53.272Z,21.24
2019-05-13T13:52:22.689Z,21.35
2019-05-13T13:55:02.041Z,21.51
2019-05-13T13:57:25.550Z,21.61
2019-05-13T14:02:25.242Z,21.56
2019-05-13T14:04:54.136Z,21.55
2019-05-13T14:07:31.281Z,21.63
2019-05-13T14:09:53.072Z,21.84
2019-05-13T14:12:22.058Z,21.76
2019-05-13T14:14:52.050Z,21.43
2019-05-13T14:17:21.953Z,21.32
2019-05-13T14:19:52.362Z,21.44
2019-05-13T14:22:21.861Z,21.66
2019-05-13T14:24:51.873Z,21.80
2019-05-13T14:27:22.372Z,21.88
2019-05-13T14:29:52.689Z,21.89
2019-05-13T14:32:22.480Z,21.95
2019-05-13T14:34:52.550Z,22.11
2019-05-13T14:37:22.320Z,22.11
2019-05-13T14:39:51.180Z,22.10
2019-05-13T14:42:22.554Z,21.95
2019-05-13T14:44:51.914Z,21.86
2019-05-13T14:47:21.804Z,21.89
2019-05-13T14:49:52.142Z,21.87
2019-05-13T14:52:22.228Z,21.72
2019-05-13T14:54:51.578Z,21.66
2019-05-13T14:57:21.865Z,21.75
2019-05-13T14:59:51.399Z,21.99
2019-05-13T15:02:20.685Z,22.25
2019-05-13T15:04:52.173Z,22.13
2019-05-13T15:07:21.637Z,22.15
2019-05-13T15:09:51.514Z,22.14
2019-05-13T15:12:21.646Z,22.15
2019-05-13T15:14:52.341Z,22.07
2019-05-13T15:17:21.487Z,21.65
2019-05-13T15:19:52.467Z,21.48
2019-05-13T15:22:22.676Z,21.24
2019-05-13T15:24:51.945Z,21.16
2019-05-13T15:27:22.266Z,21.00
2019-05-13T15:29:51.582Z,20.79
2019-05-13T15:32:21.743Z,20.54
2019-05-13T15:34:51.849Z,20.43
2019-05-13T15:37:21.470Z,20.36
2019-05-13T15:39:51.862Z,20.41
2019-05-13T15:42:21.393Z,20.44
2019-05-13T15:44:50.062Z,20.47
2019-05-13T15:47:24.157Z,20.50
2019-05-13T15:49:52.966Z,20.58
2019-05-13T15:52:22.616Z,20.76
2019-05-13T15:54:52.227Z,20.87
2019-05-13T15:57:21.412Z,20.82
2019-05-13T15:59:51.810Z,20.63
2019-05-13T16:02:22.661Z,20.41
2019-05-13T16:05:00.677Z,20.26
2019-05-13T16:07:21.609Z,20.28
2019-05-13T16:09:52.449Z,20.19
2019-05-13T16:12:21.334Z,19.95
2019-05-13T16:14:50.154Z,19.49
2019-05-13T16:17:23.059Z,18.93
2019-05-13T16:19:49.281Z,18.52
2019-05-13T16:22:18.222Z,18.24
2019-05-13T16:24:47.478Z,17.98
2019-05-13T16:27:16.040Z,17.70
2019-05-13T16:29:45.090Z,17.44
2019-05-13T16:32:14.364Z,17.21
2019-05-13T16:34:43.048Z,17.02
2019-05-13T16:37:11.870Z,16.85
2019-05-13T16:39:41.378Z,16.68
2019-05-13T16:42:11.707Z,16.52
2019-05-13T16:44:43.048Z,16.27
2019-05-13T16:47:12.315Z,16.15
2019-05-13T16:49:41.193Z,16.10
2019-05-13T16:52:11.653Z,16.05
2019-05-13T16:54:42.390Z,16.01
2019-05-13T16:57:10.312Z,16.01
2019-05-13T16:59:40.924Z,15.96
2019-05-13T17:02:09.083Z,15.89
2019-05-13T17:04:37.703Z,15.82
2019-05-13T17:07:06.161Z,15.76
2019-05-13T17:09:34.949Z,15.62
2019-05-13T17:12:03.387Z,15.54
2019-05-13T17:14:32.355Z,15.50
2019-05-13T17:17:01.307Z,15.43
2019-05-13T17:19:31.763Z,15.44
2019-05-13T17:22:02.290Z,15.54
2019-05-13T17:24:31.862Z,15.54
2019-05-13T17:27:01.911Z,15.39
2019-05-13T17:29:31.715Z,15.26
2019-05-13T17:32:02.371Z,15.22
2019-05-13T17:34:31.866Z,15.32
2019-05-13T17:37:02.719Z,15.58
2019-05-13T17:39:32.175Z,15.82
2019-05-13T17:42:01.512Z,15.95
2019-05-13T17:44:31.832Z,15.99
2019-05-13T17:47:01.749Z,15.94
2019-05-13T17:49:31.850Z,15.72
2019-05-13T17:52:02.636Z,15.46
2019-05-13T17:54:32.104Z,15.20
2019-05-13T17:57:01.826Z,15.03
2019-05-13T17:59:31.453Z,14.88
2019-05-13T18:02:02.569Z,14.80
2019-05-13T18:04:31.390Z,14.74
2019-05-13T18:07:01.636Z,14.74
2019-05-13T18:09:31.809Z,14.73
2019-05-13T18:12:02.443Z,14.72
2019-05-13T18:14:31.002Z,14.73
2019-05-13T18:17:02.188Z,14.71
2019-05-13T18:19:31.725Z,14.72
2019-05-13T18:22:02.278Z,14.78
2019-05-13T18:24:32.351Z,14.94
2019-05-13T18:27:01.515Z,15.08
2019-05-13T18:29:31.582Z,15.27
2019-05-13T18:32:01.905Z,15.50
2019-05-13T18:34:32.113Z,15.73
2019-05-13T18:37:02.431Z,15.73
2019-05-13T18:39:32.226Z,15.39
2019-05-13T18:42:01.206Z,14.91
2019-05-13T18:44:31.655Z,14.46
2019-05-13T18:47:01.660Z,14.03
2019-05-13T18:49:31.822Z,13.68
2019-05-13T18:52:00.964Z,13.42
2019-05-13T18:54:31.618Z,13.20
2019-05-13T18:57:01.718Z,13.00
2019-05-13T18:59:32.164Z,12.82
2019-05-13T19:02:01.540Z,12.66
2019-05-13T19:04:31.264Z,12.53
2019-05-13T19:07:02.282Z,12.41
2019-05-13T19:09:31.079Z,12.30
2019-05-13T19:12:01.396Z,12.18
2019-05-13T19:14:31.789Z,12.05
2019-05-13T19:17:01.115Z,11.92
2019-05-13T19:19:31.639Z,11.81
2019-05-13T19:22:02.177Z,11.74
2019-05-13T19:24:31.499Z,11.68
2019-05-13T19:27:01.730Z,11.64
2019-05-13T19:29:31.793Z,11.59
2019-05-13T19:32:01.830Z,11.53
2019-05-13T19:34:32.399Z,11.46
2019-05-13T19:37:02.352Z,11.40
2019-05-13T19:39:31.330Z,11.34
2019-05-13T19:41:59.869Z,11.28
2019-05-13T19:44:28.814Z,11.23
2019-05-13T19:46:57.584Z,11.15
2019-05-13T19:49:32.162Z,11.09
2019-05-13T19:51:57.749Z,10.99
2019-05-13T19:54:26.195Z,10.95
2019-05-13T19:56:55.886Z,10.90
2019-05-13T19:59:25.287Z,10.86
2019-05-13T20:01:55.171Z,10.82
2019-05-13T20:04:23.798Z,10.75
2019-05-13T20:06:52.291Z,10.68
2019-05-13T20:09:21.483Z,10.64
2019-05-13T20:11:55.270Z,10.59
2019-05-13T20:14:23.081Z,10.52
2019-05-13T20:16:52.447Z,10.48
2019-05-13T20:19:22.310Z,10.45
2019-05-13T20:21:51.827Z,10.39
2019-05-13T20:24:21.995Z,10.34
2019-05-13T20:26:52.219Z,10.27
2019-05-13T20:29:20.948Z,10.21
2019-05-13T20:31:51.849Z,10.17
2019-05-13T20:34:22.193Z,10.12
2019-05-13T20:36:51.612Z,10.08
2019-05-13T20:39:22.461Z,10.05
2019-05-13T20:41:55.529Z,10.04
2019-05-13T20:44:22.117Z,10.02
2019-05-13T20:46:51.854Z,10.01
2019-05-13T20:49:21.859Z,9.96
2019-05-13T20:51:51.682Z,9.91
2019-05-13T20:54:22.119Z,9.86
2019-05-13T20:56:51.807Z,9.79
2019-05-13T20:59:21.564Z,9.72
2019-05-13T21:01:51.148Z,9.67
2019-05-13T21:04:21.530Z,9.63
2019-05-13T21:06:51.597Z,9.57
2019-05-13T21:09:20.232Z,9.53
2019-05-13T21:11:51.354Z,9.51
2019-05-13T21:14:21.390Z,9.47
2019-05-13T21:16:49.154Z,9.43
2019-05-13T21:19:17.571Z,9.43
2019-05-13T21:21:46.106Z,9.41
2019-05-13T21:24:14.789Z,9.39
2019-05-13T21:26:43.203Z,9.36
2019-05-13T21:29:11.795Z,9.32
2019-05-13T21:31:41.407Z,9.25
2019-05-13T21:34:11.927Z,9.22
2019-05-13T21:36:41.177Z,9.18
2019-05-13T21:39:12.221Z,9.13
2019-05-13T21:41:41.304Z,9.09
2019-05-13T21:44:11.929Z,9.08
2019-05-13T21:46:41.182Z,9.10
2019-05-13T21:49:11.843Z,9.07
2019-05-13T21:51:41.784Z,9.02
2019-05-13T21:54:11.848Z,8.97
2019-05-13T21:56:42.629Z,8.93
2019-05-13T21:59:10.815Z,8.90
2019-05-13T22:01:42.076Z,8.85
2019-05-13T22:04:09.388Z,8.84
2019-05-13T22:06:38.049Z,8.82
2019-05-13T22:09:08.855Z,8.79
2019-05-13T22:11:37.531Z,8.73
2019-05-13T22:14:06.178Z,8.68
2019-05-13T22:16:34.605Z,8.68
2019-05-13T22:19:03.097Z,8.65
2019-05-13T22:21:31.705Z,8.61
2019-05-13T22:24:02.219Z,8.59
2019-05-13T22:26:31.167Z,8.58
2019-05-13T22:28:59.699Z,8.54
2019-05-13T22:31:28.128Z,8.50
2019-05-13T22:33:56.550Z,8.47
2019-05-13T22:36:24.988Z,8.44
2019-05-13T22:38:53.411Z,8.43
2019-05-13T22:41:22.348Z,8.39
2019-05-13T22:43:58.138Z,8.33
2019-05-13T22:46:21.514Z,8.29
2019-05-13T22:48:51.252Z,8.27
2019-05-13T22:51:21.390Z,8.26
2019-05-13T22:53:50.079Z,8.23
2019-05-13T22:56:18.528Z,8.21
2019-05-13T22:58:47.262Z,8.19
2019-05-13T23:01:16.254Z,8.17
2019-05-13T23:03:44.884Z,8.13
2019-05-13T23:06:13.343Z,8.09
2019-05-13T23:08:41.785Z,8.03
2019-05-13T23:11:10.244Z,7.96
2019-05-13T23:13:38.967Z,7.91
2019-05-13T23:16:07.383Z,7.85
2019-05-13T23:18:36.090Z,7.79
2019-05-13T23:21:04.821Z,7.76
2019-05-13T23:23:33.244Z,7.72
2019-05-13T23:26:01.764Z,7.69
2019-05-13T23:28:32.277Z,7.64
2019-05-13T23:31:01.714Z,7.61
2019-05-13T23:33:31.390Z,7.56
2019-05-13T23:36:01.535Z,7.54
2019-05-13T23:38:32.021Z,7.53
2019-05-13T23:41:02.085Z,7.51
2019-05-13T23:43:31.106Z,7.49
2019-05-13T23:46:01.172Z,7.45
2019-05-13T23:48:31.994Z,7.40
2019-05-13T23:51:01.353Z,7.36
2019-05-13T23:53:31.545Z,7.33
2019-05-13T23:56:02.004Z,7.32
2019-05-13T23:58:32.108Z,7.33
